sensor_id;sensor_type;location;lat;lon;timestamp;P1;durP1;ratioP1;P2;durP2;ratioP2
45784;SDS011;31489;51.404;5.474;2022-12-11T00:01:09;57.55;;;24.80;;
45784;SDS011;31489;51.404;5.474;2022-12-11T00:03:36;58.13;;;23.58;;
45784;SDS011;31489;51.404;5.474;2022-12-11T00:06:04;49.60;;;23.25;;
45784;SDS011;31489;51.404;5.474;2022-12-11T00:08:31;55.65;;;24.48;;
45784;SDS011;31489;51.404;5.474;2022-12-11T00:10:57;50.17;;;23.98;;
45784;SDS011;31489;51.404;5.474;2022-12-11T00:13:22;49.22;;;23.70;;
45784;SDS011;31489;51.404;5.474;2022-12-11T00:15:48;56.67;;;24.70;;
45784;SDS011;31489;51.404;5.474;2022-12-11T00:18:13;48.97;;;24.08;;
45784;SDS011;31489;51.404;5.474;2022-12-11T00:20:39;53.72;;;24.50;;
45784;SDS011;31489;51.404;5.474;2022-12-11T00:23:05;49.88;;;23.38;;
45784;SDS011;31489;51.404;5.474;2022-12-11T00:25:34;50.17;;;24.10;;
45784;SDS011;31489;51.404;5.474;2022-12-11T00:27:59;45.92;;;21.63;;
45784;SDS011;31489;51.404;5.474;2022-12-11T00:30:25;48.58;;;24.23;;
45784;SDS011;31489;51.404;5.474;2022-12-11T00:32:51;46.65;;;22.83;;
45784;SDS011;31489;51.404;5.474;2022-12-11T00:35:16;52.53;;;23.10;;
45784;SDS011;31489;51.404;5.474;2022-12-11T00:37:42;52.28;;;24.25;;
45784;SDS011;31489;51.404;5.474;2022-12-11T00:40:08;49.33;;;23.30;;
45784;SDS011;31489;51.404;5.474;2022-12-11T00:42:34;49.15;;;24.23;;
45784;SDS011;31489;51.404;5.474;2022-12-11T00:44:59;45.92;;;21.95;;
45784;SDS011;31489;51.404;5.474;2022-12-11T00:47:25;48.83;;;23.92;;
45784;SDS011;31489;51.404;5.474;2022-12-11T00:49:50;52.15;;;23.90;;
45784;SDS011;31489;51.404;5.474;2022-12-11T00:52:16;46.00;;;22.40;;
45784;SDS011;31489;51.404;5.474;2022-12-11T00:54:42;45.65;;;23.25;;
45784;SDS011;31489;51.404;5.474;2022-12-11T00:57:07;43.47;;;22.92;;
45784;SDS011;31489;51.404;5.474;2022-12-11T00:59:33;42.30;;;21.23;;
45784;SDS011;31489;51.404;5.474;2022-12-11T01:01:59;44.20;;;22.08;;
45784;SDS011;31489;51.404;5.474;2022-12-11T01:04:25;49.45;;;21.85;;
45784;SDS011;31489;51.404;5.474;2022-12-11T01:06:50;41.55;;;21.40;;
45784;SDS011;31489;51.404;5.474;2022-12-11T01:09:16;42.20;;;21.42;;
45784;SDS011;31489;51.404;5.474;2022-12-11T01:12:00;46.90;;;22.23;;
45784;SDS011;31489;51.404;5.474;2022-12-11T01:14:25;43.88;;;21.35;;
45784;SDS011;31489;51.404;5.474;2022-12-11T01:16:51;41.33;;;19.95;;
45784;SDS011;31489;51.404;5.474;2022-12-11T01:19:17;39.13;;;21.20;;
45784;SDS011;31489;51.404;5.474;2022-12-11T01:21:42;42.78;;;20.92;;
45784;SDS011;31489;51.404;5.474;2022-12-11T01:24:08;44.67;;;22.40;;
45784;SDS011;31489;51.404;5.474;2022-12-11T01:26:33;40.80;;;21.17;;
45784;SDS011;31489;51.404;5.474;2022-12-11T01:28:59;50.58;;;22.15;;
45784;SDS011;31489;51.404;5.474;2022-12-11T01:31:25;39.53;;;20.30;;
45784;SDS011;31489;51.404;5.474;2022-12-11T01:33:52;42.22;;;22.10;;
45784;SDS011;31489;51.404;5.474;2022-12-11T01:36:19;41.03;;;20.92;;
45784;SDS011;31489;51.404;5.474;2022-12-11T01:38:46;40.30;;;21.45;;
45784;SDS011;31489;51.404;5.474;2022-12-11T01:41:13;38.92;;;19.63;;
45784;SDS011;31489;51.404;5.474;2022-12-11T01:46:27;42.00;;;21.20;;
45784;SDS011;31489;51.404;5.474;2022-12-11T01:48:54;43.13;;;19.58;;
45784;SDS011;31489;51.404;5.474;2022-12-11T01:51:21;39.80;;;20.23;;
45784;SDS011;31489;51.404;5.474;2022-12-11T01:53:50;38.70;;;19.95;;
45784;SDS011;31489;51.404;5.474;2022-12-11T01:56:21;37.17;;;19.45;;
45784;SDS011;31489;51.404;5.474;2022-12-11T01:58:51;38.10;;;20.13;;
45784;SDS011;31489;51.404;5.474;2022-12-11T02:01:24;39.65;;;19.40;;
45784;SDS011;31489;51.404;5.474;2022-12-11T02:04:00;42.92;;;20.17;;
45784;SDS011;31489;51.404;5.474;2022-12-11T02:06:40;35.88;;;19.08;;
45784;SDS011;31489;51.404;5.474;2022-12-11T02:09:11;40.03;;;18.80;;
45784;SDS011;31489;51.404;5.474;2022-12-11T02:14:32;40.80;;;20.15;;
45784;SDS011;31489;51.404;5.474;2022-12-11T02:17:03;35.83;;;18.85;;
45784;SDS011;31489;51.404;5.474;2022-12-11T02:22:01;37.53;;;19.83;;
45784;SDS011;31489;51.404;5.474;2022-12-11T02:30:09;38.83;;;19.23;;
45784;SDS011;31489;51.404;5.474;2022-12-11T02:32:48;34.20;;;18.10;;
45784;SDS011;31489;51.404;5.474;2022-12-11T02:35:24;37.53;;;18.67;;
45784;SDS011;31489;51.404;5.474;2022-12-11T02:38:04;35.65;;;19.10;;
45784;SDS011;31489;51.404;5.474;2022-12-11T02:40:41;33.58;;;17.30;;
45784;SDS011;31489;51.404;5.474;2022-12-11T02:43:09;32.05;;;17.75;;
45784;SDS011;31489;51.404;5.474;2022-12-11T02:45:38;37.47;;;17.30;;
45784;SDS011;31489;51.404;5.474;2022-12-11T02:48:06;33.35;;;17.67;;
45784;SDS011;31489;51.404;5.474;2022-12-11T02:50:35;36.80;;;19.45;;
45784;SDS011;31489;51.404;5.474;2022-12-11T02:53:06;32.53;;;17.85;;
45784;SDS011;31489;51.404;5.474;2022-12-11T02:55:34;33.10;;;17.50;;
45784;SDS011;31489;51.404;5.474;2022-12-11T02:58:06;32.70;;;18.35;;
45784;SDS011;31489;51.404;5.474;2022-12-11T03:00:44;32.80;;;17.20;;
45784;SDS011;31489;51.404;5.474;2022-12-11T03:03:10;32.28;;;17.95;;
45784;SDS011;31489;51.404;5.474;2022-12-11T03:05:38;34.10;;;18.45;;
45784;SDS011;31489;51.404;5.474;2022-12-11T03:08:05;30.25;;;17.00;;
45784;SDS011;31489;51.404;5.474;2022-12-11T03:10:31;31.25;;;17.75;;
45784;SDS011;31489;51.404;5.474;2022-12-11T03:12:57;28.77;;;16.52;;
45784;SDS011;31489;51.404;5.474;2022-12-11T03:19:05;31.95;;;16.88;;
45784;SDS011;31489;51.404;5.474;2022-12-11T03:21:39;27.35;;;16.95;;
45784;SDS011;31489;51.404;5.474;2022-12-11T03:24:29;28.75;;;15.70;;
45784;SDS011;31489;51.404;5.474;2022-12-11T03:27:12;27.90;;;16.00;;
45784;SDS011;31489;51.404;5.474;2022-12-11T03:29:50;27.75;;;15.48;;
45784;SDS011;31489;51.404;5.474;2022-12-11T03:32:21;25.52;;;15.63;;
45784;SDS011;31489;51.404;5.474;2022-12-11T03:37:20;24.08;;;14.05;;
45784;SDS011;31489;51.404;5.474;2022-12-11T03:39:50;25.10;;;14.55;;
45784;SDS011;31489;51.404;5.474;2022-12-11T03:42:19;22.88;;;14.80;;
45784;SDS011;31489;51.404;5.474;2022-12-11T03:44:48;24.48;;;14.57;;
45784;SDS011;31489;51.404;5.474;2022-12-11T03:47:17;24.80;;;14.18;;
45784;SDS011;31489;51.404;5.474;2022-12-11T03:49:45;24.85;;;14.20;;
45784;SDS011;31489;51.404;5.474;2022-12-11T03:52:13;23.45;;;13.85;;
45784;SDS011;31489;51.404;5.474;2022-12-11T03:54:41;21.58;;;13.45;;
45784;SDS011;31489;51.404;5.474;2022-12-11T03:57:10;23.08;;;13.35;;
45784;SDS011;31489;51.404;5.474;2022-12-11T03:59:40;20.90;;;13.30;;
45784;SDS011;31489;51.404;5.474;2022-12-11T04:02:06;22.40;;;14.00;;
45784;SDS011;31489;51.404;5.474;2022-12-11T04:04:38;24.33;;;13.25;;
45784;SDS011;31489;51.404;5.474;2022-12-11T04:07:05;20.23;;;12.00;;
45784;SDS011;31489;51.404;5.474;2022-12-11T04:09:31;19.60;;;11.77;;
45784;SDS011;31489;51.404;5.474;2022-12-11T04:11:57;19.67;;;12.60;;
45784;SDS011;31489;51.404;5.474;2022-12-11T04:14:22;18.48;;;12.68;;
45784;SDS011;31489;51.404;5.474;2022-12-11T04:17:07;19.52;;;12.63;;
45784;SDS011;31489;51.404;5.474;2022-12-11T04:19:33;20.60;;;12.35;;
45784;SDS011;31489;51.404;5.474;2022-12-11T04:22:17;21.73;;;12.20;;
45784;SDS011;31489;51.404;5.474;2022-12-11T04:25:02;18.52;;;12.10;;
45784;SDS011;31489;51.404;5.474;2022-12-11T04:27:29;19.15;;;11.50;;
45784;SDS011;31489;51.404;5.474;2022-12-11T04:30:15;19.40;;;11.73;;
45784;SDS011;31489;51.404;5.474;2022-12-11T04:32:48;16.40;;;11.82;;
45784;SDS011;31489;51.404;5.474;2022-12-11T04:35:15;25.33;;;12.50;;
45784;SDS011;31489;51.404;5.474;2022-12-11T04:37:41;19.10;;;11.85;;
45784;SDS011;31489;51.404;5.474;2022-12-11T04:40:08;15.10;;;11.10;;
45784;SDS011;31489;51.404;5.474;2022-12-11T04:42:36;16.50;;;11.00;;
45784;SDS011;31489;51.404;5.474;2022-12-11T04:45:02;15.63;;;11.10;;
45784;SDS011;31489;51.404;5.474;2022-12-11T04:47:29;16.73;;;10.88;;
45784;SDS011;31489;51.404;5.474;2022-12-11T04:49:55;18.27;;;11.05;;
45784;SDS011;31489;51.404;5.474;2022-12-11T04:52:21;16.73;;;10.38;;
45784;SDS011;31489;51.404;5.474;2022-12-11T04:54:46;14.65;;;9.85;;
45784;SDS011;31489;51.404;5.474;2022-12-11T04:57:12;15.82;;;11.15;;
45784;SDS011;31489;51.404;5.474;2022-12-11T04:59:38;16.83;;;11.32;;
45784;SDS011;31489;51.404;5.474;2022-12-11T05:02:03;16.85;;;10.80;;
45784;SDS011;31489;51.404;5.474;2022-12-11T05:04:29;16.10;;;10.07;;
45784;SDS011;31489;51.404;5.474;2022-12-11T05:06:59;12.75;;;9.55;;
45784;SDS011;31489;51.404;5.474;2022-12-11T05:09:25;17.35;;;10.50;;
45784;SDS011;31489;51.404;5.474;2022-12-11T05:11:51;15.77;;;9.95;;
45784;SDS011;31489;51.404;5.474;2022-12-11T05:14:17;15.10;;;9.90;;
45784;SDS011;31489;51.404;5.474;2022-12-11T05:16:43;17.25;;;11.38;;
45784;SDS011;31489;51.404;5.474;2022-12-11T05:19:09;16.08;;;11.13;;
45784;SDS011;31489;51.404;5.474;2022-12-11T05:21:35;19.50;;;10.90;;
45784;SDS011;31489;51.404;5.474;2022-12-11T05:24:00;16.27;;;11.13;;
45784;SDS011;31489;51.404;5.474;2022-12-11T05:26:26;14.00;;;10.23;;
45784;SDS011;31489;51.404;5.474;2022-12-11T05:28:52;17.02;;;11.00;;
45784;SDS011;31489;51.404;5.474;2022-12-11T05:31:20;15.82;;;10.55;;
45784;SDS011;31489;51.404;5.474;2022-12-11T05:33:50;16.10;;;10.57;;
45784;SDS011;31489;51.404;5.474;2022-12-11T05:36:20;15.20;;;10.43;;
45784;SDS011;31489;51.404;5.474;2022-12-11T05:38:51;15.50;;;11.15;;
45784;SDS011;31489;51.404;5.474;2022-12-11T05:41:18;16.15;;;10.48;;
45784;SDS011;31489;51.404;5.474;2022-12-11T05:43:45;16.35;;;10.82;;
45784;SDS011;31489;51.404;5.474;2022-12-11T05:46:21;17.45;;;10.57;;
45784;SDS011;31489;51.404;5.474;2022-12-11T05:48:49;16.45;;;11.13;;
45784;SDS011;31489;51.404;5.474;2022-12-11T05:51:20;15.73;;;10.88;;
45784;SDS011;31489;51.404;5.474;2022-12-11T05:53:46;17.45;;;11.05;;
45784;SDS011;31489;51.404;5.474;2022-12-11T05:56:14;16.35;;;11.52;;
45784;SDS011;31489;51.404;5.474;2022-12-11T05:58:41;19.23;;;11.55;;
45784;SDS011;31489;51.404;5.474;2022-12-11T06:01:08;17.60;;;10.57;;
45784;SDS011;31489;51.404;5.474;2022-12-11T06:03:36;16.95;;;11.40;;
45784;SDS011;31489;51.404;5.474;2022-12-11T06:06:02;16.25;;;10.95;;
45784;SDS011;31489;51.404;5.474;2022-12-11T06:08:28;16.00;;;10.82;;
45784;SDS011;31489;51.404;5.474;2022-12-11T06:10:55;16.95;;;10.90;;
45784;SDS011;31489;51.404;5.474;2022-12-11T06:13:20;17.40;;;10.02;;
45784;SDS011;31489;51.404;5.474;2022-12-11T06:15:46;15.55;;;10.70;;
45784;SDS011;31489;51.404;5.474;2022-12-11T06:18:12;17.45;;;11.27;;
45784;SDS011;31489;51.404;5.474;2022-12-11T06:20:38;17.10;;;11.18;;
45784;SDS011;31489;51.404;5.474;2022-12-11T06:23:03;17.50;;;11.65;;
45784;SDS011;31489;51.404;5.474;2022-12-11T06:25:29;19.90;;;11.65;;
45784;SDS011;31489;51.404;5.474;2022-12-11T06:27:55;16.58;;;11.55;;
45784;SDS011;31489;51.404;5.474;2022-12-11T06:30:21;18.55;;;11.50;;
45784;SDS011;31489;51.404;5.474;2022-12-11T06:32:47;17.70;;;12.02;;
45784;SDS011;31489;51.404;5.474;2022-12-11T06:35:12;17.30;;;11.65;;
45784;SDS011;31489;51.404;5.474;2022-12-11T06:37:38;19.08;;;11.02;;
45784;SDS011;31489;51.404;5.474;2022-12-11T06:40:05;20.63;;;12.65;;
45784;SDS011;31489;51.404;5.474;2022-12-11T06:42:32;18.42;;;11.45;;
45784;SDS011;31489;51.404;5.474;2022-12-11T06:44:58;18.88;;;12.18;;
45784;SDS011;31489;51.404;5.474;2022-12-11T06:47:29;19.52;;;11.95;;
45784;SDS011;31489;51.404;5.474;2022-12-11T06:49:56;18.33;;;12.00;;
45784;SDS011;31489;51.404;5.474;2022-12-11T06:52:22;20.88;;;12.88;;
45784;SDS011;31489;51.404;5.474;2022-12-11T06:54:49;18.77;;;11.30;;
45784;SDS011;31489;51.404;5.474;2022-12-11T06:57:15;19.50;;;12.60;;
45784;SDS011;31489;51.404;5.474;2022-12-11T06:59:41;21.02;;;11.93;;
45784;SDS011;31489;51.404;5.474;2022-12-11T07:02:08;20.20;;;12.85;;
45784;SDS011;31489;51.404;5.474;2022-12-11T07:04:39;21.23;;;13.25;;
45784;SDS011;31489;51.404;5.474;2022-12-11T07:07:05;18.88;;;12.32;;
45784;SDS011;31489;51.404;5.474;2022-12-11T07:09:31;18.35;;;12.50;;
45784;SDS011;31489;51.404;5.474;2022-12-11T07:11:56;20.85;;;12.80;;
45784;SDS011;31489;51.404;5.474;2022-12-11T07:14:22;21.48;;;12.80;;
45784;SDS011;31489;51.404;5.474;2022-12-11T07:16:48;22.70;;;13.23;;
45784;SDS011;31489;51.404;5.474;2022-12-11T07:19:14;20.17;;;12.32;;
45784;SDS011;31489;51.404;5.474;2022-12-11T07:21:39;18.88;;;12.13;;
45784;SDS011;31489;51.404;5.474;2022-12-11T07:24:05;22.52;;;12.93;;
45784;SDS011;31489;51.404;5.474;2022-12-11T07:26:31;20.20;;;12.00;;
45784;SDS011;31489;51.404;5.474;2022-12-11T07:28:57;21.50;;;13.48;;
45784;SDS011;31489;51.404;5.474;2022-12-11T07:31:24;21.70;;;12.95;;
45784;SDS011;31489;51.404;5.474;2022-12-11T07:33:52;20.33;;;12.60;;
45784;SDS011;31489;51.404;5.474;2022-12-11T07:36:23;22.98;;;14.38;;
45784;SDS011;31489;51.404;5.474;2022-12-11T07:38:49;20.00;;;12.65;;
45784;SDS011;31489;51.404;5.474;2022-12-11T07:41:14;20.55;;;13.05;;
45784;SDS011;31489;51.404;5.474;2022-12-11T07:43:41;20.85;;;12.95;;
45784;SDS011;31489;51.404;5.474;2022-12-11T07:46:12;20.98;;;12.70;;
45784;SDS011;31489;51.404;5.474;2022-12-11T07:48:43;25.92;;;14.13;;
45784;SDS011;31489;51.404;5.474;2022-12-11T07:51:11;19.95;;;12.80;;
45784;SDS011;31489;51.404;5.474;2022-12-11T07:53:45;21.77;;;13.68;;
45784;SDS011;31489;51.404;5.474;2022-12-11T07:56:12;19.88;;;13.25;;
45784;SDS011;31489;51.404;5.474;2022-12-11T07:58:38;22.55;;;13.98;;
45784;SDS011;31489;51.404;5.474;2022-12-11T08:01:04;23.58;;;12.90;;
45784;SDS011;31489;51.404;5.474;2022-12-11T08:03:34;19.52;;;13.00;;
45784;SDS011;31489;51.404;5.474;2022-12-11T08:05:59;19.60;;;12.88;;
45784;SDS011;31489;51.404;5.474;2022-12-11T08:08:25;19.65;;;12.57;;
45784;SDS011;31489;51.404;5.474;2022-12-11T08:10:50;21.02;;;12.30;;
45784;SDS011;31489;51.404;5.474;2022-12-11T08:13:16;23.38;;;13.35;;
45784;SDS011;31489;51.404;5.474;2022-12-11T08:15:42;22.80;;;13.85;;
45784;SDS011;31489;51.404;5.474;2022-12-11T08:18:07;20.98;;;13.30;;
45784;SDS011;31489;51.404;5.474;2022-12-11T08:20:33;19.63;;;12.90;;
45784;SDS011;31489;51.404;5.474;2022-12-11T08:23:01;22.48;;;13.00;;
45784;SDS011;31489;51.404;5.474;2022-12-11T08:25:27;23.63;;;13.70;;
45784;SDS011;31489;51.404;5.474;2022-12-11T08:27:52;22.52;;;12.95;;
45784;SDS011;31489;51.404;5.474;2022-12-11T08:30:21;24.45;;;14.20;;
45784;SDS011;31489;51.404;5.474;2022-12-11T08:32:46;20.45;;;12.93;;
45784;SDS011;31489;51.404;5.474;2022-12-11T08:35:12;22.90;;;13.20;;
45784;SDS011;31489;51.404;5.474;2022-12-11T08:37:37;24.75;;;13.57;;
45784;SDS011;31489;51.404;5.474;2022-12-11T08:40:04;26.55;;;13.98;;
45784;SDS011;31489;51.404;5.474;2022-12-11T08:42:30;19.92;;;12.38;;
45784;SDS011;31489;51.404;5.474;2022-12-11T08:44:56;21.08;;;12.02;;
45784;SDS011;31489;51.404;5.474;2022-12-11T08:47:21;20.80;;;12.90;;
45784;SDS011;31489;51.404;5.474;2022-12-11T08:49:48;21.10;;;12.52;;
45784;SDS011;31489;51.404;5.474;2022-12-11T08:52:14;21.48;;;12.52;;
45784;SDS011;31489;51.404;5.474;2022-12-11T08:54:39;20.23;;;12.10;;
45784;SDS011;31489;51.404;5.474;2022-12-11T08:57:05;21.33;;;12.98;;
45784;SDS011;31489;51.404;5.474;2022-12-11T08:59:30;21.02;;;12.75;;
45784;SDS011;31489;51.404;5.474;2022-12-11T09:01:56;22.77;;;12.48;;
45784;SDS011;31489;51.404;5.474;2022-12-11T09:04:22;21.15;;;12.93;;
45784;SDS011;31489;51.404;5.474;2022-12-11T09:06:47;20.60;;;13.13;;
45784;SDS011;31489;51.404;5.474;2022-12-11T09:09:13;22.80;;;12.80;;
45784;SDS011;31489;51.404;5.474;2022-12-11T09:11:39;20.92;;;12.48;;
45784;SDS011;31489;51.404;5.474;2022-12-11T09:14:06;21.33;;;12.60;;
45784;SDS011;31489;51.404;5.474;2022-12-11T09:16:31;20.08;;;13.25;;
45784;SDS011;31489;51.404;5.474;2022-12-11T09:18:58;26.70;;;13.70;;
45784;SDS011;31489;51.404;5.474;2022-12-11T09:21:25;21.75;;;12.80;;
45784;SDS011;31489;51.404;5.474;2022-12-11T09:23:53;20.48;;;12.45;;
45784;SDS011;31489;51.404;5.474;2022-12-11T09:26:20;20.40;;;12.43;;
45784;SDS011;31489;51.404;5.474;2022-12-11T09:28:46;19.38;;;11.93;;
45784;SDS011;31489;51.404;5.474;2022-12-11T09:31:20;23.08;;;13.30;;
45784;SDS011;31489;51.404;5.474;2022-12-11T09:33:48;22.83;;;13.15;;
45784;SDS011;31489;51.404;5.474;2022-12-11T09:36:15;21.52;;;12.50;;
45784;SDS011;31489;51.404;5.474;2022-12-11T09:38:40;19.10;;;11.55;;
45784;SDS011;31489;51.404;5.474;2022-12-11T09:41:58;22.10;;;13.32;;
45784;SDS011;31489;51.404;5.474;2022-12-11T09:44:00;21.33;;;12.80;;
45784;SDS011;31489;51.404;5.474;2022-12-11T09:46:41;20.10;;;12.23;;
45784;SDS011;31489;51.404;5.474;2022-12-11T09:54:57;20.83;;;12.23;;
45784;SDS011;31489;51.404;5.474;2022-12-11T09:57:45;19.88;;;11.48;;
45784;SDS011;31489;51.404;5.474;2022-12-11T10:00:13;20.42;;;12.13;;
45784;SDS011;31489;51.404;5.474;2022-12-11T10:05:59;22.92;;;12.07;;
45784;SDS011;31489;51.404;5.474;2022-12-11T10:14:12;21.48;;;11.07;;
45784;SDS011;31489;51.404;5.474;2022-12-11T10:17:27;20.30;;;12.32;;
45784;SDS011;31489;51.404;5.474;2022-12-11T10:19:56;20.27;;;11.75;;
45784;SDS011;31489;51.404;5.474;2022-12-11T10:22:46;18.50;;;11.88;;
45784;SDS011;31489;51.404;5.474;2022-12-11T10:25:35;17.73;;;11.10;;
45784;SDS011;31489;51.404;5.474;2022-12-11T10:28:13;19.42;;;12.07;;
45784;SDS011;31489;51.404;5.474;2022-12-11T10:30:44;20.98;;;11.57;;
45784;SDS011;31489;51.404;5.474;2022-12-11T10:33:39;22.80;;;11.82;;
45784;SDS011;31489;51.404;5.474;2022-12-11T10:36:30;21.38;;;11.40;;
45784;SDS011;31489;51.404;5.474;2022-12-11T10:38:58;20.38;;;11.43;;
45784;SDS011;31489;51.404;5.474;2022-12-11T10:41:36;23.80;;;12.55;;
45784;SDS011;31489;51.404;5.474;2022-12-11T10:44:17;18.95;;;11.90;;
45784;SDS011;31489;51.404;5.474;2022-12-11T10:47:04;19.50;;;11.48;;
45784;SDS011;31489;51.404;5.474;2022-12-11T10:49:32;22.20;;;11.63;;
45784;SDS011;31489;51.404;5.474;2022-12-11T10:51:59;19.85;;;11.55;;
45784;SDS011;31489;51.404;5.474;2022-12-11T10:57:00;17.65;;;11.43;;
45784;SDS011;31489;51.404;5.474;2022-12-11T11:02:04;17.70;;;10.50;;
45784;SDS011;31489;51.404;5.474;2022-12-11T11:04:42;19.92;;;11.63;;
45784;SDS011;31489;51.404;5.474;2022-12-11T11:07:12;20.95;;;12.00;;
45784;SDS011;31489;51.404;5.474;2022-12-11T11:09:47;20.25;;;11.85;;
45784;SDS011;31489;51.404;5.474;2022-12-11T11:12:21;21.00;;;11.60;;
45784;SDS011;31489;51.404;5.474;2022-12-11T11:15:00;19.85;;;11.75;;
45784;SDS011;31489;51.404;5.474;2022-12-11T11:17:31;17.33;;;10.45;;
45784;SDS011;31489;51.404;5.474;2022-12-11T11:20:03;21.05;;;11.68;;
45784;SDS011;31489;51.404;5.474;2022-12-11T11:22:37;22.98;;;12.00;;
45784;SDS011;31489;51.404;5.474;2022-12-11T11:25:27;20.25;;;11.98;;
45784;SDS011;31489;51.404;5.474;2022-12-11T11:28:01;21.83;;;11.63;;
45784;SDS011;31489;51.404;5.474;2022-12-11T11:30:29;19.58;;;11.13;;
45784;SDS011;31489;51.404;5.474;2022-12-11T11:33:03;17.45;;;10.60;;
45784;SDS011;31489;51.404;5.474;2022-12-11T11:35:36;19.77;;;10.73;;
45784;SDS011;31489;51.404;5.474;2022-12-11T11:40:38;18.73;;;10.93;;
45784;SDS011;31489;51.404;5.474;2022-12-11T11:45:54;17.67;;;10.55;;
45784;SDS011;31489;51.404;5.474;2022-12-11T11:50:49;17.83;;;10.30;;
45784;SDS011;31489;51.404;5.474;2022-12-11T11:53:30;19.23;;;11.20;;
45784;SDS011;31489;51.404;5.474;2022-12-11T11:56:09;16.92;;;9.82;;
45784;SDS011;31489;51.404;5.474;2022-12-11T11:59:15;17.35;;;10.38;;
45784;SDS011;31489;51.404;5.474;2022-12-11T12:01:44;18.52;;;10.30;;
45784;SDS011;31489;51.404;5.474;2022-12-11T12:04:11;18.98;;;10.90;;
45784;SDS011;31489;51.404;5.474;2022-12-11T12:06:40;18.30;;;11.18;;
45784;SDS011;31489;51.404;5.474;2022-12-11T12:17:56;15.82;;;9.73;;
45784;SDS011;31489;51.404;5.474;2022-12-11T12:29:08;16.92;;;9.68;;
45784;SDS011;31489;51.404;5.474;2022-12-11T12:32:04;14.60;;;8.82;;
45784;SDS011;31489;51.404;5.474;2022-12-11T12:34:44;13.52;;;8.98;;
45784;SDS011;31489;51.404;5.474;2022-12-11T12:37:19;14.73;;;9.60;;
45784;SDS011;31489;51.404;5.474;2022-12-11T12:47:40;18.13;;;10.07;;
45784;SDS011;31489;51.404;5.474;2022-12-11T12:50:19;16.75;;;10.07;;
45784;SDS011;31489;51.404;5.474;2022-12-11T12:52:47;17.50;;;10.27;;
45784;SDS011;31489;51.404;5.474;2022-12-11T12:55:19;14.15;;;9.10;;
45784;SDS011;31489;51.404;5.474;2022-12-11T13:03:14;15.65;;;9.70;;
45784;SDS011;31489;51.404;5.474;2022-12-11T13:05:53;16.13;;;9.70;;
45784;SDS011;31489;51.404;5.474;2022-12-11T13:08:29;14.50;;;9.18;;
45784;SDS011;31489;51.404;5.474;2022-12-11T13:11:02;17.35;;;9.57;;
45784;SDS011;31489;51.404;5.474;2022-12-11T13:13:35;17.52;;;10.05;;
45784;SDS011;31489;51.404;5.474;2022-12-11T13:16:51;15.18;;;9.82;;
45784;SDS011;31489;51.404;5.474;2022-12-11T13:19:00;19.92;;;13.80;;
45784;SDS011;31489;51.404;5.474;2022-12-11T13:24:23;15.30;;;10.05;;
45784;SDS011;31489;51.404;5.474;2022-12-11T13:26:51;13.73;;;9.52;;
45784;SDS011;31489;51.404;5.474;2022-12-11T13:34:39;14.55;;;9.73;;
45784;SDS011;31489;51.404;5.474;2022-12-11T13:37:20;14.13;;;9.23;;
45784;SDS011;31489;51.404;5.474;2022-12-11T13:39:49;13.50;;;9.65;;
45784;SDS011;31489;51.404;5.474;2022-12-11T13:47:29;16.85;;;9.23;;
45784;SDS011;31489;51.404;5.474;2022-12-11T13:50:18;14.75;;;9.27;;
45784;SDS011;31489;51.404;5.474;2022-12-11T13:52:55;12.70;;;8.27;;
45784;SDS011;31489;51.404;5.474;2022-12-11T13:55:27;16.50;;;10.07;;
45784;SDS011;31489;51.404;5.474;2022-12-11T13:57:55;51.20;;;32.00;;
45784;SDS011;31489;51.404;5.474;2022-12-11T14:00:22;25.38;;;15.68;;
45784;SDS011;31489;51.404;5.474;2022-12-11T14:02:53;17.05;;;10.90;;
45784;SDS011;31489;51.404;5.474;2022-12-11T14:05:21;15.05;;;10.32;;
45784;SDS011;31489;51.404;5.474;2022-12-11T14:07:49;12.93;;;9.18;;
45784;SDS011;31489;51.404;5.474;2022-12-11T14:10:26;14.27;;;9.27;;
45784;SDS011;31489;51.404;5.474;2022-12-11T14:15:27;14.48;;;9.07;;
45784;SDS011;31489;51.404;5.474;2022-12-11T14:17:53;12.18;;;8.23;;
45784;SDS011;31489;51.404;5.474;2022-12-11T14:20:21;14.20;;;9.27;;
45784;SDS011;31489;51.404;5.474;2022-12-11T14:23:05;12.68;;;8.35;;
45784;SDS011;31489;51.404;5.474;2022-12-11T14:25:40;15.55;;;8.88;;
45784;SDS011;31489;51.404;5.474;2022-12-11T14:28:12;13.20;;;8.60;;
45784;SDS011;31489;51.404;5.474;2022-12-11T14:30:41;15.88;;;9.43;;
45784;SDS011;31489;51.404;5.474;2022-12-11T14:33:11;11.48;;;8.20;;
45784;SDS011;31489;51.404;5.474;2022-12-11T14:35:38;14.55;;;8.90;;
45784;SDS011;31489;51.404;5.474;2022-12-11T14:38:09;14.70;;;9.32;;
45784;SDS011;31489;51.404;5.474;2022-12-11T14:40:41;14.60;;;8.93;;
45784;SDS011;31489;51.404;5.474;2022-12-11T14:43:10;12.95;;;8.77;;
45784;SDS011;31489;51.404;5.474;2022-12-11T14:45:43;145.80;;;91.78;;
45784;SDS011;31489;51.404;5.474;2022-12-11T14:48:16;29.15;;;19.38;;
45784;SDS011;31489;51.404;5.474;2022-12-11T14:50:56;19.17;;;12.70;;
45784;SDS011;31489;51.404;5.474;2022-12-11T14:53:26;14.85;;;10.15;;
45784;SDS011;31489;51.404;5.474;2022-12-11T14:55:55;12.95;;;9.48;;
45784;SDS011;31489;51.404;5.474;2022-12-11T14:58:25;16.75;;;9.93;;
45784;SDS011;31489;51.404;5.474;2022-12-11T15:00:55;15.10;;;9.13;;
45784;SDS011;31489;51.404;5.474;2022-12-11T15:03:22;12.40;;;8.43;;
45784;SDS011;31489;51.404;5.474;2022-12-11T15:05:52;13.23;;;9.10;;
45784;SDS011;31489;51.404;5.474;2022-12-11T15:08:20;14.45;;;8.73;;
45784;SDS011;31489;51.404;5.474;2022-12-11T15:11:06;12.32;;;8.98;;
45784;SDS011;31489;51.404;5.474;2022-12-11T15:13:34;13.23;;;9.07;;
45784;SDS011;31489;51.404;5.474;2022-12-11T15:16:02;15.05;;;9.27;;
45784;SDS011;31489;51.404;5.474;2022-12-11T15:18:35;12.50;;;9.38;;
45784;SDS011;31489;51.404;5.474;2022-12-11T15:21:06;11.30;;;9.18;;
45784;SDS011;31489;51.404;5.474;2022-12-11T15:23:38;11.85;;;8.38;;
45784;SDS011;31489;51.404;5.474;2022-12-11T15:26:16;13.23;;;9.18;;
45784;SDS011;31489;51.404;5.474;2022-12-11T15:28:42;12.27;;;8.90;;
45784;SDS011;31489;51.404;5.474;2022-12-11T15:31:25;14.95;;;8.77;;
45784;SDS011;31489;51.404;5.474;2022-12-11T15:33:52;12.23;;;8.20;;
45784;SDS011;31489;51.404;5.474;2022-12-11T15:41:20;12.38;;;8.75;;
45784;SDS011;31489;51.404;5.474;2022-12-11T15:43:48;14.23;;;9.23;;
45784;SDS011;31489;51.404;5.474;2022-12-11T15:46:18;15.43;;;9.70;;
45784;SDS011;31489;51.404;5.474;2022-12-11T15:48:44;14.95;;;9.35;;
45784;SDS011;31489;51.404;5.474;2022-12-11T15:51:11;15.48;;;9.70;;
45784;SDS011;31489;51.404;5.474;2022-12-11T15:53:37;16.20;;;10.32;;
45784;SDS011;31489;51.404;5.474;2022-12-11T15:56:02;17.55;;;10.75;;
45784;SDS011;31489;51.404;5.474;2022-12-11T15:58:28;17.02;;;10.23;;
45784;SDS011;31489;51.404;5.474;2022-12-11T16:00:54;16.05;;;9.70;;
45784;SDS011;31489;51.404;5.474;2022-12-11T16:03:21;16.70;;;10.65;;
45784;SDS011;31489;51.404;5.474;2022-12-11T16:05:47;14.20;;;10.00;;
45784;SDS011;31489;51.404;5.474;2022-12-11T16:08:17;16.25;;;10.70;;
45784;SDS011;31489;51.404;5.474;2022-12-11T16:10:45;16.15;;;10.25;;
45784;SDS011;31489;51.404;5.474;2022-12-11T16:13:12;17.02;;;10.48;;
45784;SDS011;31489;51.404;5.474;2022-12-11T16:15:38;11.50;;;8.57;;
45784;SDS011;31489;51.404;5.474;2022-12-11T16:18:07;11.13;;;8.30;;